KTCM/TCM METAR and TAF weather

Enter ICAO airport designator
Station Type Date Time Source
KTCM METAR 2021/09/20 04:58 UTC NOAA

KTCM 200458Z 18009KT 10SM FEW050 11/11 A3021 RMK AO2A SLP234 T01130107 $


Station Type Date Time Source
KTCM Decoded METAR 2021/09/20 04:58 UTC NOAA

Tacoma / McChord Air Force Base, WA, United States (KTCM) 47-09N 122-29W 87M
Sep 20, 2021 - 12:58 AM EDT / 2021.09.20 0458 UTC
Wind: from the S (180 degrees) at 10 MPH (9 KT):0
Visibility: 10 mile(s):0
Sky conditions: mostly clear
Temperature: 52.3 F (11.3 C)
Dew Point: 51.3 F (10.7 C)
Relative Humidity: 96%
Pressure (altimeter): 30.21 in. Hg (1023 hPa)
ob: KTCM 200458Z 18009KT 10SM FEW050 11/11 A3021 RMK AO2A SLP234 T01130107
cycle: 5

Station Type Date Time Source
KTCM TAF 2021/09/20 05:03 UTC NOAA

TAF TAF KTCM 200500Z 2005/2111 18008KT 9999 FEW030 QNH3021INS
BECMG 2008/2009 19006KT 9999 SCT020 BKN030 QNH3026INS
BECMG 2011/2012 VRB06KT 9999 BKN020 QNH3029INS
BECMG 2018/2019 29004KT 9999 SCT050 QNH3033INS
BECMG 2101/2102 03003KT 9999 SKC QNH3024INS TX17/2023Z TN09/2011Z

Example: see airport list